
Distance (Route):
Temperature : -26.8°C
Humidity : 61.0%
Pressure : 0hPa| Receiver | Frames | First received | Last received |
|---|---|---|---|
| LZ4TU-5 | 120 | 2026-09-04 23:07:21 | 2026-09-05 01:09:46 |
| Receiver | Date | Latitude | Longitude | Direction | Speed | Altitude | Climb | Temperature | Humidity | Pressure | Voltage | Killtimer | Uptime | BKT | XDATA |
|---|---|---|---|---|---|---|---|---|---|---|---|---|---|---|---|
| LZ4TU-5 | 2026-09-05 01:09:46 | -60.81016 | -69.01505 | 0° | 0km/h | 16266m | 0.0m/s | -26.8°C | 61.0% | 0hPa | 0V | 00:00:00 | 00:00:00 | 00:00:00 | |
| LZ4TU-5 | 2026-09-05 01:09:41 | -60.81016 | -69.01505 | 0° | 0km/h | 16266m | 0.0m/s | -27.3°C | 63.0% | 0hPa | 0V | 00:00:00 | 00:00:00 | 00:00:00 | |
| LZ4TU-5 | 2026-09-05 01:04:49 | -60.81016 | -69.01505 | 0° | 0km/h | 16266m | 0.0m/s | -59.0°C | 25.8% | 0hPa | 0V | 00:00:00 | 00:00:00 | 00:00:00 | |
| LZ4TU-5 | 2026-09-05 01:04:44 | -60.81016 | -69.01505 | 0° | 0km/h | 16266m | 0.0m/s | -58.8°C | 24.2% | 0hPa | 0V | 00:00:00 | 00:00:00 | 00:00:00 | |
| LZ4TU-5 | 2026-09-05 01:02:34 | -60.81016 | -69.01505 | 0° | 0km/h | 16266m | 0.0m/s | -59.9°C | 2.7% | 0hPa | 0V | 00:00:00 | 00:00:00 | 00:00:00 | |
| LZ4TU-5 | 2026-09-05 01:02:30 | -60.81016 | -69.01505 | 0° | 0km/h | 16266m | 0.0m/s | -60.5°C | 2.7% | 0hPa | 0V | 00:00:00 | 00:00:00 | 00:00:00 | |
| LZ4TU-5 | 2026-09-05 01:00:21 | -60.81016 | -69.01505 | 0° | 0km/h | 16266m | 0.0m/s | -59.7°C | 2.1% | 0hPa | 0V | 00:00:00 | 00:00:00 | 00:00:00 | |
| LZ4TU-5 | 2026-09-05 01:00:17 | -60.81016 | -69.01505 | 0° | 0km/h | 16266m | 0.0m/s | -59.2°C | 2.0% | 0hPa | 0V | 00:00:00 | 00:00:00 | 00:00:00 | |
| LZ4TU-5 | 2026-09-05 00:58:24 | -60.81016 | -69.01505 | 0° | 0km/h | 16266m | 0.0m/s | -56.9°C | 1.8% | 0hPa | 0V | 00:00:00 | 00:00:00 | 00:00:00 | |
| LZ4TU-5 | 2026-09-05 00:58:19 | -60.81016 | -69.01505 | 0° | 0km/h | 16266m | 0.0m/s | -56.9°C | 1.7% | 0hPa | 0V | 00:00:00 | 00:00:00 | 00:00:00 | |
| LZ4TU-5 | 2026-09-05 00:56:09 | -60.81016 | -69.01505 | 0° | 0km/h | 16266m | 0.0m/s | -56.1°C | 1.6% | 0hPa | 0V | 00:00:00 | 00:00:00 | 00:00:00 | |
| LZ4TU-5 | 2026-09-05 00:56:04 | -60.81016 | -69.01505 | 0° | 0km/h | 16266m | 0.0m/s | -56.6°C | 1.7% | 0hPa | 0V | 00:00:00 | 00:00:00 | 00:00:00 | |
| LZ4TU-5 | 2026-09-05 00:54:01 | -60.81016 | -69.01505 | 0° | 0km/h | 16266m | 0.0m/s | -50.1°C | 1.2% | 0hPa | 0V | 00:00:00 | 00:00:00 | 00:00:00 | |
| LZ4TU-5 | 2026-09-05 00:53:56 | -60.81016 | -69.01505 | 0° | 0km/h | 16266m | 0.0m/s | -49.4°C | 1.2% | 0hPa | 0V | 00:00:00 | 00:00:00 | 00:00:00 | |
| LZ4TU-5 | 2026-09-05 00:51:26 | -60.81016 | -69.01505 | 0° | 0km/h | 16266m | 0.0m/s | -45.8°C | 0% | 0hPa | 0V | 00:00:00 | 00:00:00 | 00:00:00 | |
| LZ4TU-5 | 2026-09-05 00:51:21 | -60.38790 | -28.85304 | 0° | 0km/h | 16130m | 0.0m/s | -45.2°C | 3.1% | 0hPa | 0V | 00:00:00 | 00:00:00 | 00:00:00 | |
| LZ4TU-5 | 2026-09-05 00:43:31 | -12.03880 | -77.06056 | 332° | 193km/h | 980m | -0.1m/s | -47.0°C | 3.1% | 0hPa | 0V | 00:00:00 | 00:00:00 | 00:00:00 | |
| LZ4TU-5 | 2026-09-05 00:40:01 | -12.03198 | -77.05488 | 56° | 199km/h | 988m | 0.3m/s | -49.1°C | 3.4% | 0hPa | 0V | 00:00:00 | 00:00:00 | 00:00:00 | |
| LZ4TU-5 | 2026-09-05 00:39:56 | -12.03371 | -77.05674 | 40° | 199km/h | 987m | 1.8m/s | -49.1°C | 3.4% | 0hPa | 0V | 00:00:00 | 00:00:00 | 00:00:00 | |
| LZ4TU-5 | 2026-09-05 00:37:00 | -12.04846 | -77.04901 | 262° | 199km/h | 977m | -0.1m/s | -51.9°C | 3.8% | 0hPa | 0V | 00:00:00 | 00:00:00 | 00:00:00 | |
| LZ4TU-5 | 2026-09-05 00:36:56 | -12.04794 | -77.04702 | 250° | 199km/h | 978m | -0.0m/s | -51.9°C | 3.8% | 0hPa | 0V | 00:00:00 | 00:00:00 | 00:00:00 | |
| LZ4TU-5 | 2026-09-05 00:35:25 | -12.04575 | -77.05705 | 317° | 197km/h | 977m | 0.7m/s | -52.7°C | 3.8% | 0hPa | 0V | 00:00:00 | 00:00:00 | 00:00:00 | |
| LZ4TU-5 | 2026-09-05 00:33:43 | -12.04129 | -77.05952 | 348° | 206km/h | 916m | -1.1m/s | -53.9°C | 4.1% | 0hPa | 0V | 00:00:00 | 00:00:00 | 00:00:00 | |
| LZ4TU-5 | 2026-09-05 00:33:39 | -12.04325 | -77.05890 | 337° | 199km/h | 915m | -5.7m/s | -54.0°C | 4.2% | 0hPa | 0V | 00:00:00 | 00:00:00 | 00:00:00 | |
| LZ4TU-5 | 2026-09-05 00:33:34 | -12.04539 | -77.05749 | 320° | 201km/h | 931m | -2.5m/s | -53.9°C | 4.1% | 0hPa | 0V | 00:00:00 | 00:00:00 | 00:00:00 | |
| LZ4TU-5 | 2026-09-05 00:33:29 | -12.04711 | -77.05557 | 306° | 190km/h | 921m | -7.0m/s | -53.9°C | 4.1% | 0hPa | 0V | 00:00:00 | 00:00:00 | 00:00:00 | |
| LZ4TU-5 | 2026-09-05 00:33:24 | -12.04803 | -77.05382 | 291° | 197km/h | 937m | -9.7m/s | -53.9°C | 4.1% | 0hPa | 0V | 00:00:00 | 00:00:00 | 00:00:00 | |
| LZ4TU-5 | 2026-09-05 00:33:20 | -12.04850 | -77.05128 | 275° | 199km/h | 976m | -5.4m/s | -53.9°C | 4.0% | 0hPa | 0V | 00:00:00 | 00:00:00 | 00:00:00 | |
| LZ4TU-5 | 2026-09-05 00:33:16 | -12.04846 | -77.04919 | 263° | 199km/h | 997m | -2.3m/s | -54.0°C | 4.1% | 0hPa | 0V | 00:00:00 | 00:00:00 | 00:00:00 | |
| LZ4TU-5 | 2026-09-05 00:33:08 | -12.03636 | -77.04185 | 160° | 201km/h | 995m | -2.9m/s | -54.0°C | 4.2% | 0hPa | 0V | 00:00:00 | 00:00:00 | 00:00:00 | |
| LZ4TU-5 | 2026-09-05 00:33:03 | -12.03636 | -77.04185 | 160° | 201km/h | 995m | -2.9m/s | -53.9°C | 4.2% | 0hPa | 0V | 00:00:00 | 00:00:00 | 00:00:00 | |
| LZ4TU-5 | 2026-09-05 00:32:58 | -12.03636 | -77.04185 | 160° | 201km/h | 995m | -2.9m/s | -53.8°C | 4.1% | 0hPa | 0V | 00:00:00 | 00:00:00 | 00:00:00 | |
| LZ4TU-5 | 2026-09-05 00:32:53 | -12.03636 | -77.04185 | 160° | 201km/h | 995m | -2.9m/s | -53.7°C | 4.1% | 0hPa | 0V | 00:00:00 | 00:00:00 | 00:00:00 | |
| LZ4TU-5 | 2026-09-05 00:32:49 | -12.03636 | -77.04185 | 160° | 201km/h | 995m | -2.9m/s | -53.6°C | 4.0% | 0hPa | 0V | 00:00:00 | 00:00:00 | 00:00:00 | |
| LZ4TU-5 | 2026-09-05 00:32:44 | -12.03636 | -77.04185 | 160° | 201km/h | 995m | -2.9m/s | -53.6°C | 4.4% | 0hPa | 0V | 00:00:00 | 00:00:00 | 00:00:00 | |
| LZ4TU-5 | 2026-09-05 00:27:05 | -13.37586 | -76.02299 | 0° | 0km/h | 1135m | 0.0m/s | -55.2°C | 4.3% | 0hPa | 0V | 00:00:00 | 00:00:00 | 00:00:00 | |
| LZ4TU-5 | 2026-09-05 00:27:01 | -13.37586 | -76.02299 | 0° | 0km/h | 1135m | 0.0m/s | -55.1°C | 4.2% | 0hPa | 0V | 00:00:00 | 00:00:00 | 00:00:00 | |
| LZ4TU-5 | 2026-09-05 00:25:18 | -13.37586 | -76.02299 | 0° | 0km/h | 1135m | 0.0m/s | -56.2°C | 4.5% | 0hPa | 0V | 00:00:00 | 00:00:00 | 00:00:00 | |
| LZ4TU-5 | 2026-09-05 00:25:14 | -6.94851 | -79.58072 | 0° | 0km/h | 310m | 0.0m/s | -56.2°C | 4.8% | 0hPa | 0V | 00:00:00 | 00:00:00 | 00:00:00 | |
| LZ4TU-5 | 2026-09-05 00:25:09 | -6.94851 | -79.58072 | 0° | 0km/h | 310m | 0.0m/s | -56.1°C | 4.8% | 0hPa | 0V | 00:00:00 | 00:00:00 | 00:00:00 | |
| LZ4TU-5 | 2026-09-05 00:23:27 | -6.94851 | -79.58072 | 0° | 0km/h | 310m | 0.0m/s | -56.5°C | 4.8% | 0hPa | 0V | 00:00:00 | 00:00:00 | 00:00:00 | |
| LZ4TU-5 | 2026-09-05 00:23:22 | -6.94851 | -79.58072 | 0° | 0km/h | 310m | 0.0m/s | -56.6°C | 4.9% | 0hPa | 0V | 00:00:00 | 00:00:00 | 00:00:00 | |
| LZ4TU-5 | 2026-09-05 00:21:43 | -8.67756 | -78.35022 | 0° | 0km/h | 483m | 0.0m/s | -56.1°C | 0% | 0hPa | 0V | 00:00:00 | 00:00:00 | 00:00:00 | |
| LZ4TU-5 | 2026-09-05 00:21:39 | -8.67756 | -78.35022 | 0° | 0km/h | 483m | 0.0m/s | -56.3°C | 4.2% | 0hPa | 0V | 00:00:00 | 00:00:00 | 00:00:00 | |
| LZ4TU-5 | 2026-09-05 00:19:57 | -13.64700 | -73.44530 | 0° | 0km/h | 1181m | 0.0m/s | -57.4°C | 4.8% | 0hPa | 0V | 00:00:00 | 00:00:00 | 00:00:00 | |
| LZ4TU-5 | 2026-09-05 00:19:52 | -13.64700 | -73.44530 | 0° | 0km/h | 1181m | 0.0m/s | -57.3°C | 4.6% | 0hPa | 0V | 00:00:00 | 00:00:00 | 00:00:00 | |
| LZ4TU-5 | 2026-09-05 00:18:08 | -13.64700 | -73.44530 | 0° | 0km/h | 1181m | 0.0m/s | -58.7°C | 4.9% | 0hPa | 0V | 00:00:00 | 00:00:00 | 00:00:00 | |
| LZ4TU-5 | 2026-09-05 00:18:04 | -13.64700 | -73.44530 | 0° | 0km/h | 1181m | 0.0m/s | -58.8°C | 5.0% | 0hPa | 0V | 00:00:00 | 00:00:00 | 00:00:00 | |
| LZ4TU-5 | 2026-09-05 00:17:58 | -13.64700 | -73.44530 | 0° | 0km/h | 1181m | 0.0m/s | -58.7°C | 5.3% | 0hPa | 0V | 00:00:00 | 00:00:00 | 00:00:00 | |
| LZ4TU-5 | 2026-09-05 00:16:19 | -9.02433 | -85.23134 | 0° | 0km/h | 522m | 0.0m/s | -57.5°C | 5.1% | 0hPa | 0V | 00:00:00 | 00:00:00 | 00:00:00 | |
| LZ4TU-5 | 2026-09-05 00:16:14 | -9.02433 | -85.23134 | 0° | 0km/h | 522m | 0.0m/s | -57.5°C | 5.0% | 0hPa | 0V | 00:00:00 | 00:00:00 | 00:00:00 | |
| LZ4TU-5 | 2026-09-05 00:16:09 | -9.02433 | -85.23134 | 0° | 0km/h | 522m | 0.0m/s | -57.3°C | 5.0% | 0hPa | 0V | 00:00:00 | 00:00:00 | 00:00:00 | |
| LZ4TU-5 | 2026-09-05 00:16:04 | -9.02433 | -85.23134 | 0° | 0km/h | 522m | 0.0m/s | -57.3°C | 5.0% | 0hPa | 0V | 00:00:00 | 00:00:00 | 00:00:00 | |
| LZ4TU-5 | 2026-09-05 00:15:59 | -19.50356 | -81.86093 | 0° | 0km/h | 2366m | 0.0m/s | -57.3°C | 4.3% | 0hPa | 0V | 00:00:00 | 00:00:00 | 00:00:00 | |
| LZ4TU-5 | 2026-09-05 00:14:07 | -19.50356 | -81.86093 | 0° | 0km/h | 2366m | 0.0m/s | -58.0°C | 4.4% | 0hPa | 0V | 00:00:00 | 00:00:00 | 00:00:00 | |
| LZ4TU-5 | 2026-09-05 00:13:57 | -19.50356 | -81.86093 | 0° | 0km/h | 2366m | 0.0m/s | -58.3°C | 4.5% | 0hPa | 0V | 00:00:00 | 00:00:00 | 00:00:00 | |
| LZ4TU-5 | 2026-09-05 00:12:16 | -19.50356 | -81.86093 | 0° | 0km/h | 2366m | 0.0m/s | -59.5°C | 5.0% | 0hPa | 0V | 00:00:00 | 00:00:00 | 00:00:00 | |
| LZ4TU-5 | 2026-09-05 00:12:11 | -19.50356 | -81.86093 | 0° | 0km/h | 2366m | 0.0m/s | -59.4°C | 5.0% | 0hPa | 0V | 00:00:00 | 00:00:00 | 00:00:00 | |
| LZ4TU-5 | 2026-09-05 00:10:34 | -28.80692 | -86.98063 | 0° | 0km/h | 4933m | 0.0m/s | -58.1°C | 3.7% | 0hPa | 0V | 00:00:00 | 00:00:00 | 00:00:00 | |
| LZ4TU-5 | 2026-09-05 00:10:30 | -45.44601 | -52.19974 | 0° | 0km/h | 10814m | 0.0m/s | -58.0°C | 5.3% | 0hPa | 0V | 00:00:00 | 00:00:00 | 00:00:00 | |
| LZ4TU-5 | 2026-09-04 23:58:01 | -12.02981 | -77.05552 | 27° | 206km/h | 952m | -3.2m/s | -61.6°C | 30.1% | 0hPa | 0V | 00:00:00 | 00:00:00 | 00:00:00 | |
| LZ4TU-5 | 2026-09-04 23:56:24 | -12.03084 | -77.04657 | 113° | 197km/h | 988m | -0.6m/s | -62.7°C | 49.0% | 0hPa | 0V | 00:00:00 | 00:00:00 | 00:00:00 | |
| LZ4TU-5 | 2026-09-04 23:56:19 | -12.03021 | -77.04903 | 97° | 199km/h | 990m | 0.1m/s | -62.6°C | 0% | 0hPa | 0V | 00:00:00 | 00:00:00 | 00:00:00 | |
| LZ4TU-5 | 2026-09-04 23:54:39 | -12.03292 | -77.04349 | 137° | 199km/h | 994m | 0.2m/s | -60.6°C | 44.5% | 0hPa | 0V | 00:00:00 | 00:00:00 | 00:00:00 | |
| LZ4TU-5 | 2026-09-04 23:54:34 | -12.03137 | -77.04552 | 120° | 199km/h | 995m | -0.0m/s | -60.6°C | 44.4% | 0hPa | 0V | 00:00:00 | 00:00:00 | 00:00:00 | |
| LZ4TU-5 | 2026-09-04 23:52:53 | -12.03584 | -77.04190 | 156° | 199km/h | 1024m | 0.1m/s | -58.4°C | 46.8% | 0hPa | 0V | 00:00:00 | 00:00:00 | 00:00:00 | |
| LZ4TU-5 | 2026-09-04 23:52:48 | -12.03371 | -77.04329 | 140° | 199km/h | 1024m | -0.0m/s | -58.3°C | 47.5% | 0hPa | 0V | 00:00:00 | 00:00:00 | 00:00:00 | |
| LZ4TU-5 | 2026-09-04 23:49:22 | -12.04244 | -77.04157 | 199° | 199km/h | 1028m | -0.7m/s | -51.8°C | 48.9% | 0hPa | 0V | 00:00:00 | 00:00:00 | 00:00:00 | |
| LZ4TU-5 | 2026-09-04 23:49:17 | -12.03995 | -77.04112 | 183° | 199km/h | 1032m | 0.0m/s | -51.7°C | 49.6% | 0hPa | 0V | 00:00:00 | 00:00:00 | 00:00:00 | |
| LZ4TU-5 | 2026-09-04 23:44:00 | 44.26724 | 26.29892 | 182° | 215km/h | 12715m | 104.5m/s | -40.8°C | 46.1% | 0hPa | 0V | 00:00:00 | 00:00:00 | 00:00:00 | |
| LZ4TU-5 | 2026-09-04 23:43:56 | 44.26992 | 26.29862 | 185° | 224km/h | 12197m | 95.5m/s | -40.6°C | 46.4% | 0hPa | 0V | 00:00:00 | 00:00:00 | 00:00:00 | |
| LZ4TU-5 | 2026-09-04 23:42:11 | 44.29431 | 26.30022 | 183° | 57km/h | 9656m | 4.6m/s | -37.3°C | 48.8% | 0hPa | 0V | 00:00:00 | 00:00:00 | 00:00:00 | |
| LZ4TU-5 | 2026-09-04 23:40:44 | 44.30535 | 26.30034 | 174° | 49km/h | 9331m | 3.2m/s | -34.5°C | 46.7% | 0hPa | 0V | 00:00:00 | 00:00:00 | 00:00:00 | |
| LZ4TU-5 | 2026-09-04 23:40:39 | 44.30598 | 26.30028 | 176° | 51km/h | 9317m | 3.5m/s | -34.4°C | 47.1% | 0hPa | 0V | 00:00:00 | 00:00:00 | 00:00:00 | |
| LZ4TU-5 | 2026-09-04 23:39:15 | 44.31670 | 26.29958 | 169° | 53km/h | 9021m | 5.2m/s | -31.6°C | 0% | 0hPa | 0V | 00:00:00 | 00:00:00 | 00:00:00 | |
| LZ4TU-5 | 2026-09-04 23:39:11 | 44.31727 | 26.29937 | 169° | 55km/h | 8999m | 5.9m/s | -31.5°C | 46.1% | 0hPa | 0V | 00:00:00 | 00:00:00 | 00:00:00 | |
| LZ4TU-5 | 2026-09-04 23:37:57 | 44.32584 | 26.29551 | 168° | 58km/h | 9004m | 14.9m/s | -29.7°C | 59.6% | 0hPa | 0V | 00:00:00 | 00:00:00 | 00:00:00 | |
| LZ4TU-5 | 2026-09-04 23:37:52 | 44.32652 | 26.29497 | 165° | 62km/h | 9057m | 28.1m/s | -29.5°C | 59.5% | 0hPa | 0V | 00:00:00 | 00:00:00 | 00:00:00 | |
| LZ4TU-5 | 2026-09-04 23:35:14 | 44.34432 | 26.28661 | 156° | 47km/h | 8070m | 4.9m/s | -24.2°C | 52.4% | 0hPa | 0V | 00:00:00 | 00:00:00 | 00:00:00 | |
| LZ4TU-5 | 2026-09-04 23:35:09 | 44.34484 | 26.28625 | 154° | 46km/h | 8044m | 4.7m/s | -24.0°C | 0% | 0hPa | 0V | 00:00:00 | 00:00:00 | 00:00:00 | |
| LZ4TU-5 | 2026-09-04 23:33:53 | 44.32529 | 26.30450 | 152° | 285km/h | 7990m | 24.6m/s | -21.3°C | 44.8% | 0hPa | 0V | 00:00:00 | 00:00:00 | 00:00:00 | |
| LZ4TU-5 | 2026-09-04 23:28:35 | 44.38415 | 26.25376 | 159° | 53km/h | 6562m | 4.4m/s | -13.5°C | 62.6% | 0hPa | 0V | 00:00:00 | 00:00:00 | 00:00:00 | |
| LZ4TU-5 | 2026-09-04 23:28:29 | 44.38477 | 26.25348 | 164° | 49km/h | 6545m | 4.8m/s | -13.5°C | 62.5% | 0hPa | 0V | 00:00:00 | 00:00:00 | 00:00:00 | |
| LZ4TU-5 | 2026-09-04 23:27:19 | 44.39368 | 26.25116 | 175° | 49km/h | 6270m | 4.2m/s | -12.0°C | 53.9% | 0hPa | 0V | 00:00:00 | 00:00:00 | 00:00:00 | |
| LZ4TU-5 | 2026-09-04 23:27:14 | 44.39418 | 26.25108 | 174° | 51km/h | 6253m | 5.1m/s | -11.8°C | 50.6% | 0hPa | 0V | 00:00:00 | 00:00:00 | 00:00:00 | |
| LZ4TU-5 | 2026-09-04 23:26:06 | 44.40235 | 26.24856 | 165° | 47km/h | 5993m | 3.3m/s | -9.7°C | 18.0% | 0hPa | 0V | 00:00:00 | 00:00:00 | 00:00:00 | |
| LZ4TU-5 | 2026-09-04 23:26:02 | 44.40280 | 26.24837 | 164° | 47km/h | 5977m | 4.0m/s | -9.6°C | 18.5% | 0hPa | 0V | 00:00:00 | 00:00:00 | 00:00:00 | |
| LZ4TU-5 | 2026-09-04 23:24:48 | 44.41083 | 26.24468 | 164° | 38km/h | 5696m | 3.3m/s | -8.4°C | 72.3% | 0hPa | 0V | 00:00:00 | 00:00:00 | 00:00:00 | |
| LZ4TU-5 | 2026-09-04 23:24:44 | 44.41129 | 26.24446 | 161° | 38km/h | 5678m | 4.2m/s | -8.4°C | 67.6% | 0hPa | 0V | 00:00:00 | 00:00:00 | 00:00:00 | |
| LZ4TU-5 | 2026-09-04 23:23:31 | 44.41869 | 26.24233 | 185° | 44km/h | 5419m | 4.4m/s | -8.4°C | 74.1% | 0hPa | 0V | 00:00:00 | 00:00:00 | 00:00:00 | |
| LZ4TU-5 | 2026-09-04 23:23:27 | 44.41912 | 26.24239 | 188° | 42km/h | 5402m | 3.5m/s | -8.2°C | 74.2% | 0hPa | 0V | 00:00:00 | 00:00:00 | 00:00:00 | |
| LZ4TU-5 | 2026-09-04 23:22:24 | 44.42600 | 26.24405 | 188° | 49km/h | 5173m | 3.2m/s | -6.6°C | 68.2% | 0hPa | 0V | 00:00:00 | 00:00:00 | 00:00:00 | |
| LZ4TU-5 | 2026-09-04 23:22:19 | 44.42665 | 26.24416 | 191° | 55km/h | 5155m | 3.4m/s | -6.4°C | 0% | 0hPa | 0V | 00:00:00 | 00:00:00 | 00:00:00 | |
| LZ4TU-5 | 2026-09-04 23:21:17 | 44.43501 | 26.24577 | 189° | 49km/h | 4910m | 5.0m/s | -4.1°C | 59.4% | 0hPa | 0V | 00:00:00 | 00:00:00 | 00:00:00 | |
| LZ4TU-5 | 2026-09-04 23:21:11 | 44.43561 | 26.24592 | 193° | 47km/h | 4888m | 3.4m/s | -3.9°C | 59.7% | 0hPa | 0V | 00:00:00 | 00:00:00 | 00:00:00 | |
| LZ4TU-5 | 2026-09-04 23:20:07 | 44.44312 | 26.24772 | 187° | 46km/h | 4639m | 3.5m/s | -2.2°C | 63.1% | 0hPa | 0V | 00:00:00 | 00:00:00 | 00:00:00 | |
| LZ4TU-5 | 2026-09-04 23:20:02 | 44.44370 | 26.24782 | 190° | 44km/h | 4620m | 4.2m/s | -2.3°C | 65.4% | 0hPa | 0V | 00:00:00 | 00:00:00 | 00:00:00 | |
| LZ4TU-5 | 2026-09-04 23:19:00 | 44.45228 | 26.24931 | 187° | 60km/h | 4343m | 4.5m/s | -0.2°C | 55.9% | 0hPa | 0V | 00:00:00 | 00:00:00 | 00:00:00 | |
| LZ4TU-5 | 2026-09-04 23:18:55 | 44.45302 | 26.24943 | 185° | 60km/h | 4324m | 3.4m/s | -0.0°C | 55.3% | 0hPa | 0V | 00:00:00 | 00:00:00 | 00:00:00 | |
| LZ4TU-5 | 2026-09-04 23:17:45 | 44.46339 | 26.25087 | 187° | 58km/h | 4060m | 3.6m/s | 1.8°C | 28.5% | 0hPa | 0V | 00:00:00 | 00:00:00 | 00:00:00 | |
| LZ4TU-5 | 2026-09-04 23:17:40 | 44.46414 | 26.25095 | 184° | 58km/h | 4043m | 4.1m/s | 1.9°C | 28.7% | 0hPa | 0V | 00:00:00 | 00:00:00 | 00:00:00 | |
| LZ4TU-5 | 2026-09-04 23:16:42 | 44.47216 | 26.25219 | 191° | 49km/h | 3829m | 3.5m/s | 3.3°C | 35.2% | 0hPa | 0V | 00:00:00 | 00:00:00 | 00:00:00 | |
| LZ4TU-5 | 2026-09-04 23:16:37 | 44.47280 | 26.25232 | 185° | 51km/h | 3812m | 3.5m/s | 3.5°C | 0% | 0hPa | 0V | 00:00:00 | 00:00:00 | 00:00:00 | |
| LZ4TU-5 | 2026-09-04 23:15:40 | 44.47954 | 26.25224 | 177° | 46km/h | 3567m | 3.3m/s | 4.6°C | 45.1% | 0hPa | 0V | 00:00:00 | 00:00:00 | 00:00:00 | |
| LZ4TU-5 | 2026-09-04 23:15:35 | 44.48009 | 26.25216 | 176° | 44km/h | 3546m | 4.5m/s | 0°C | 0% | 0hPa | 0V | 00:00:00 | 00:00:00 | 00:00:00 | |
| LZ4TU-5 | 2026-09-04 23:14:37 | 44.48586 | 26.25151 | 177° | 33km/h | 3279m | 4.4m/s | 0°C | 0% | 0hPa | 0V | 00:00:00 | 00:00:00 | 00:00:00 | |
| LZ4TU-5 | 2026-09-04 23:14:33 | 44.48625 | 26.25145 | 177° | 27km/h | 3256m | 5.8m/s | 0°C | 0% | 0hPa | 0V | 00:00:00 | 00:00:00 | 00:00:00 | |
| LZ4TU-5 | 2026-09-04 23:13:34 | 44.49032 | 26.25139 | 189° | 31km/h | 3017m | 3.5m/s | 0°C | 0% | 0hPa | 0V | 00:00:00 | 00:00:00 | 00:00:00 | |
| LZ4TU-5 | 2026-09-04 23:13:30 | 44.49059 | 26.25144 | 189° | 24km/h | 3001m | 4.7m/s | 0°C | 0% | 0hPa | 0V | 00:00:00 | 00:00:00 | 00:00:00 | |
| LZ4TU-5 | 2026-09-04 23:12:33 | 44.49446 | 26.25186 | 181° | 26km/h | 2752m | 7.4m/s | 0°C | 0% | 0hPa | 0V | 00:00:00 | 00:00:00 | 00:00:00 | |
| LZ4TU-5 | 2026-09-04 23:12:28 | 44.49471 | 26.25184 | 186° | 24km/h | 2733m | 3.2m/s | 0°C | 0% | 0hPa | 0V | 00:00:00 | 00:00:00 | 00:00:00 | |
| LZ4TU-5 | 2026-09-04 23:11:31 | 44.49714 | 26.25112 | 122° | 20km/h | 2492m | 6.0m/s | 0°C | 0% | 0hPa | 0V | 00:00:00 | 00:00:00 | 00:00:00 | |
| LZ4TU-5 | 2026-09-04 23:11:26 | 44.49731 | 26.25083 | 150° | 22km/h | 2470m | 3.9m/s | 0°C | 0% | 0hPa | 0V | 00:00:00 | 00:00:00 | 00:00:00 | |
| LZ4TU-5 | 2026-09-04 23:10:28 | 44.49936 | 26.24671 | 125° | 27km/h | 2245m | 4.5m/s | 0°C | 0% | 0hPa | 0V | 00:00:00 | 00:00:00 | 00:00:00 | |
| LZ4TU-5 | 2026-09-04 23:10:23 | 44.49948 | 26.24631 | 90° | 22km/h | 2225m | 2.6m/s | 0°C | 0% | 0hPa | 0V | 00:00:00 | 00:00:00 | 00:00:00 | |
| LZ4TU-5 | 2026-09-04 23:09:26 | 44.50070 | 26.24077 | 102° | 31km/h | 1989m | 4.0m/s | 0°C | 0% | 0hPa | 0V | 00:00:00 | 00:00:00 | 00:00:00 | |
| LZ4TU-5 | 2026-09-04 23:09:21 | 44.50075 | 26.24028 | 108° | 26km/h | 1971m | 4.1m/s | 0°C | 0% | 0hPa | 0V | 00:00:00 | 00:00:00 | 00:00:00 | |
| LZ4TU-5 | 2026-09-04 23:08:24 | 44.50177 | 26.23599 | 132° | 22km/h | 1735m | 5.4m/s | 0°C | 0% | 0hPa | 0V | 00:00:00 | 00:00:00 | 00:00:00 | |
| LZ4TU-5 | 2026-09-04 23:08:19 | 44.50189 | 26.23562 | 101° | 22km/h | 1712m | 5.5m/s | 0°C | 0% | 0hPa | 0V | 00:00:00 | 00:00:00 | 00:00:00 | |
| LZ4TU-5 | 2026-09-04 23:07:21 | 44.50252 | 26.23110 | 102° | 24km/h | 1481m | 2.6m/s | 0°C | 0% | 0hPa | 0V | 00:00:00 | 00:00:00 | 00:00:00 |